Brazoria County Airport
KLBX : now visible

Airfield :











YOU CAN JOIN US ON...

 
LOGIN :

Register | Disclaimer

   EN    FR    IT 

 









Legend :    VFR   Marginal VFR   IFR   Intensive IFR   Very Intensive IFR
Visi :
Ceiling :
>= 8 km
>= 3000ft
5 to 8 km
1000 to 3000 ft
1500m to 5 km
500 to 1000 ft
800 to 1500m
200 to 500 ft
< 800m
< 200 ft
Symbols :   Thunderstorms  Fog  Heavy snow  Heavy precipitations  Wind > 20 kt






- Airport Elevation : 25 ft


KLBX - Brazoria County

CURRENT METAR :
  • 172108Z AUTO 18012KT 3SM BR OVC003 22/21 A2987 RMK AO2 T02220211 $

EXPIRED METARs :
  • 172053Z AUTO 18014KT 5SM BR OVC005 22/21 A2987 RMK AO2 SLP114 T02220206 56018 $
  • 171953Z AUTO 19014KT 9SM BKN008 OVC016 23/21 A2988 RMK AO2 CIG 006V012 SLP118 T02280206 $
  • 171911Z AUTO 18014KT 10SM BKN016 OVC020 24/21 A2990 RMK AO2 T02440206 $
  • 171853Z AUTO 19011KT 10SM OVC012 24/21 A2990 RMK AO2 SLP124 T02390206 $
  • 171844Z AUTO 19011KT 10SM BKN011 OVC014 24/21 A2990 RMK AO2 CIG 008V012 T02390206 $

TAF KLBX
Valid from the 17 at 21:00 until the 18 at 18:00 UTC


172035Z 1721/1818 19014KT P6SM BKN008 OVC016
FM172200 18013KT P6SM BKN014
FM180300 17009KT P6SM SCT003 BKN005
FM180700 17008KT 5SM BR OVC004
FM181000 15006KT 2SM BR OVC003
FM181600 16008KT 3SM BR OVC007
FM181700 16009KT 5SM BR BKN011



MET'MAP, your aeronautical weather chart ! - Copyright ORBIFLY December 2007 - Disclaimer

ORBIFLY MET'MAP TEAM :

Programming & Development : Alexandra Zaïnal
Concept & original design : Baudouin d'Aumeries
Assistance for programming : Marc-Olivier Méhu
Technical & hardware support : Manuel Goepfert

Contact : metmap@orbifly.com




SOURCES & CREDITS :

   NOAA       Earth
Advisory